Time;durP1;ratioP1;P1;durP2;ratioP2;P2;SDS_P1;SDS_P2;PMS_P1;PMS_P2;Temp;Humidity;BMP_temperature;BMP_pressure;BME280_temperature;BME280_humidity;BME280_pressure;Samples;Min_cycle;Max_cycle;Signal;HPM_P1;HPM_P2
2022/04/13 00:02:56;;;;;;;3.42;1.60;;;;;;;10.84;65.66;100986.41;6223971;28;20417;-67
2022/04/13 00:05:57;;;;;;;2.83;1.38;;;;;;;10.80;67.11;100984.84;6223934;28;20053;-67
2022/04/13 00:08:59;;;;;;;2.00;1.58;;;;;;;10.78;67.56;100983.25;6224278;28;20050;-66
2022/04/13 00:12:00;;;;;;;2.03;1.33;;;;;;;10.75;66.38;100983.38;6222807;28;20056;-67
2022/04/13 00:15:05;;;;;;;3.70;1.67;;;;;;;10.72;67.14;100984.41;6223708;28;20050;-67
2022/04/13 00:18:07;;;;;;;5.68;1.52;;;;;;;10.69;68.59;100971.41;6223765;28;20085;-69
2022/04/13 00:21:08;;;;;;;3.45;1.52;;;;;;;10.65;68.76;100969.84;6223274;28;20057;-67
2022/04/13 00:24:11;;;;;;;2.35;1.08;;;;;;;10.61;69.19;100973.56;6223752;28;20049;-67
2022/04/13 00:27:12;;;;;;;3.30;1.33;;;;;;;10.58;67.44;100971.06;6223523;28;20129;-67
2022/04/13 00:30:15;;;;;;;2.40;1.58;;;;;;;10.56;68.85;100965.91;6223137;28;20046;-67
2022/04/13 00:33:16;;;;;;;2.03;1.33;;;;;;;10.55;69.03;100964.22;6222942;28;20050;-67
2022/04/13 00:36:18;;;;;;;2.60;1.65;;;;;;;10.52;68.57;100974.88;6223334;28;20051;-67
2022/04/13 00:39:19;;;;;;;2.83;1.40;;;;;;;10.48;68.83;100959.31;6223263;28;20056;-67
2022/04/13 00:42:21;;;;;;;3.97;1.42;;;;;;;10.44;70.50;100969.13;6222822;28;20065;-67
2022/04/13 00:45:23;;;;;;;3.47;1.33;;;;;;;10.41;71.61;100966.69;6223197;28;20042;-67
2022/04/13 00:48:30;;;;;;;3.53;1.17;;;;;;;10.35;73.75;100967.81;6223236;28;20489;-67
2022/04/13 00:51:31;;;;;;;5.40;1.95;;;;;;;10.27;75.17;100977.00;6222534;28;20053;-67
2022/04/13 00:54:34;;;;;;;2.72;1.30;;;;;;;10.19;75.19;100979.97;6223051;28;20053;-67
2022/04/13 00:57:38;;;;;;;3.70;1.60;;;;;;;10.15;76.74;100973.16;6223035;28;20136;-67
2022/04/13 01:00:48;;;;;;;3.47;1.58;;;;;;;10.07;77.27;100973.50;6222012;28;20056;-67
2022/04/13 01:03:51;;;;;;;2.80;1.50;;;;;;;10.01;77.42;100983.47;6223053;28;20049;-67
2022/04/13 01:06:53;;;;;;;3.15;1.25;;;;;;;9.95;76.57;100981.09;6222147;28;20053;-67
2022/04/13 01:09:55;;;;;;;2.45;0.98;;;;;;;9.88;76.40;100976.16;6222584;28;20494;-66
2022/04/13 01:12:56;;;;;;;8.20;1.70;;;;;;;9.81;76.54;100977.38;6222196;28;20136;-67
2022/04/13 01:15:58;;;;;;;4.88;1.90;;;;;;;9.74;78.13;100978.56;6222869;28;20057;-66
2022/04/13 01:19:00;;;;;;;2.50;1.45;;;;;;;9.69;79.29;100985.81;6222411;28;20057;-67
2022/04/13 01:22:16;;;;;;;4.60;1.85;;;;;;;9.60;79.97;100981.84;6222071;28;20061;-66
2022/04/13 01:25:18;;;;;;;3.70;1.58;;;;;;;9.57;81.09;100986.34;6222354;28;20140;-67
2022/04/13 01:28:19;;;;;;;3.38;1.52;;;;;;;9.52;80.52;100978.69;6222526;28;20502;-66
2022/04/13 01:31:20;;;;;;;2.30;1.30;;;;;;;9.50;80.46;100980.56;6221801;28;20045;-67
2022/04/13 01:34:22;;;;;;;3.70;1.77;;;;;;;9.51;80.49;100984.03;6222528;28;20054;-67
2022/04/13 01:37:25;;;;;;;2.25;1.10;;;;;;;9.52;79.54;100991.81;6222317;28;20519;-66
2022/04/13 01:40:26;;;;;;;6.15;1.60;;;;;;;9.51;78.06;100986.66;6219986;28;20057;-66
2022/04/13 01:43:27;;;;;;;2.72;1.55;;;;;;;9.51;80.68;100991.91;6222059;28;20045;-66
2022/04/13 01:46:29;;;;;;;4.53;1.70;;;;;;;9.52;80.96;100989.19;6221986;28;20457;-67
2022/04/13 01:49:30;;;;;;;3.97;1.75;;;;;;;9.50;81.94;100984.94;6222071;28;20525;-66
2022/04/13 01:52:33;;;;;;;2.97;1.52;;;;;;;9.48;83.40;100984.16;6221442;28;20053;-66
2022/04/13 01:55:34;;;;;;;2.70;1.45;;;;;;;9.47;84.05;100985.06;6222169;28;20045;-67
2022/04/13 01:58:35;;;;;;;4.00;1.80;;;;;;;9.45;84.04;100985.16;6221935;28;20050;-67
2022/04/13 02:01:43;;;;;;;5.05;2.17;;;;;;;9.44;84.43;100991.28;6221502;28;20050;-67
2022/04/13 02:04:44;;;;;;;2.55;1.10;;;;;;;9.45;83.95;100998.28;6221911;28;20049;-67
2022/04/13 02:07:47;;;;;;;2.97;1.67;;;;;;;9.46;85.57;100986.00;6222096;28;20058;-67
2022/04/13 02:10:49;;;;;;;3.75;1.35;;;;;;;9.43;85.28;100994.00;6220731;28;20057;-67
2022/04/13 02:13:51;;;;;;;1.83;1.55;;;;;;;9.43;86.82;100994.84;6221530;28;20407;-66
2022/04/13 02:16:52;;;;;;;2.08;1.45;;;;;;;9.44;86.96;100998.31;6221732;28;20060;-66
2022/04/13 02:19:54;;;;;;;4.00;1.50;;;;;;;9.42;86.04;100997.56;6224916;28;20053;-67
2022/04/13 02:22:56;;;;;;;4.53;1.90;;;;;;;9.38;84.53;100997.69;6226267;28;20054;-67
2022/04/13 02:25:58;;;;;;;2.88;1.55;;;;;;;9.38;84.72;100997.69;6226114;28;20489;-66
2022/04/13 02:29:00;;;;;;;5.22;2.10;;;;;;;9.33;82.84;100999.66;6226483;28;20057;-66
2022/04/13 02:32:01;;;;;;;4.53;2.15;;;;;;;9.31;82.36;101003.25;6225509;28;20046;-67
2022/04/13 02:35:02;;;;;;;3.17;1.17;;;;;;;9.25;84.01;101001.75;6226321;28;20050;-67
2022/04/13 02:38:05;;;;;;;3.55;2.00;;;;;;;9.18;84.54;100997.72;6226029;28;20058;-67
2022/04/13 02:41:06;;;;;;;1.75;1.40;;;;;;;9.11;86.44;100994.50;6225627;28;20046;-66
2022/04/13 02:44:08;;;;;;;2.03;1.48;;;;;;;9.05;87.17;100992.16;6226083;28;20056;-67
2022/04/13 02:47:10;;;;;;;3.58;1.90;;;;;;;8.99;88.41;101002.03;6226006;28;20050;-67
2022/04/13 02:50:11;;;;;;;3.88;1.65;;;;;;;8.94;88.85;101001.38;6225424;28;20417;-69
2022/04/13 02:53:14;;;;;;;1.95;1.27;;;;;;;8.86;88.08;101002.56;6225296;28;20675;-67
2022/04/13 02:56:17;;;;;;;2.50;1.15;;;;;;;8.83;88.92;101013.16;6225817;28;20053;-67
2022/04/13 02:59:18;;;;;;;2.35;1.35;;;;;;;8.76;89.09;101014.31;6225582;28;20517;-67
2022/04/13 03:02:20;;;;;;;2.22;1.65;;;;;;;8.73;89.12;101014.47;6224964;28;20053;-65
2022/04/13 03:05:21;;;;;;;3.30;1.92;;;;;;;8.67;90.36;101011.22;6225485;28;20045;-67
2022/04/13 03:08:24;;;;;;;3.70;2.03;;;;;;;8.59;91.39;101019.44;6225541;28;20045;-66
2022/04/13 03:11:25;;;;;;;3.22;1.98;;;;;;;8.53;92.09;101012.66;6224652;28;20060;-69
2022/04/13 03:14:26;;;;;;;2.45;1.70;;;;;;;8.46;94.29;101024.31;6225464;28;20050;-67
2022/04/13 03:17:28;;;;;;;3.00;1.70;;;;;;;8.41;94.33;101033.25;6225411;28;20061;-66
2022/04/13 03:20:29;;;;;;;2.35;1.40;;;;;;;8.35;95.26;101029.91;6223629;28;20053;-69
2022/04/13 03:23:32;;;;;;;4.10;1.52;;;;;;;8.33;95.48;101025.66;6223451;28;20489;-69
2022/04/13 03:26:33;;;;;;;3.35;1.98;;;;;;;8.27;96.31;101023.31;6223356;28;20054;-69
2022/04/13 03:29:34;;;;;;;2.08;1.30;;;;;;;8.21;96.01;101019.13;6222879;28;20053;-69
2022/04/13 03:32:37;;;;;;;3.05;1.75;;;;;;;8.20;97.21;101030.53;6222653;28;20046;-69
2022/04/13 03:35:38;;;;;;;2.30;1.63;;;;;;;8.17;96.74;101019.31;6223352;28;20052;-68
2022/04/13 03:38:41;;;;;;;4.38;1.85;;;;;;;8.13;96.72;101018.63;6223006;28;20493;-69
2022/04/13 03:41:42;;;;;;;7.35;1.70;;;;;;;8.09;96.30;101017.03;6222596;28;20069;-69
2022/04/13 03:44:43;;;;;;;2.85;1.65;;;;;;;8.08;96.51;101031.00;6224201;28;20501;-70
2022/04/13 03:47:45;;;;;;;2.85;1.55;;;;;;;8.05;96.85;101031.97;6224596;28;20065;-69
2022/04/13 03:50:46;;;;;;;2.85;1.50;;;;;;;8.02;98.23;101032.09;6223766;28;20060;-69
2022/04/13 03:53:49;;;;;;;2.35;1.52;;;;;;;7.97;98.65;101033.19;6224408;28;20406;-69
2022/04/13 03:56:53;;;;;;;2.47;1.48;;;;;;;7.95;98.31;101027.13;6224371;28;20056;-69
2022/04/13 03:59:54;;;;;;;3.53;1.63;;;;;;;7.93;100.00;101021.13;6223565;28;20053;-69
2022/04/13 04:02:56;;;;;;;4.53;1.33;;;;;;;7.89;100.00;101034.31;6224044;28;20057;-69
2022/04/13 04:05:57;;;;;;;2.50;1.65;;;;;;;7.88;100.00;101023.91;6224062;28;20501;-68
2022/04/13 04:09:00;;;;;;;7.68;2.00;;;;;;;7.85;100.00;101030.09;6224233;28;20050;-69
2022/04/13 04:12:01;;;;;;;3.13;1.50;;;;;;;7.83;100.00;101034.56;6222648;28;20061;-69
2022/04/13 04:15:03;;;;;;;2.40;1.40;;;;;;;7.81;100.00;101032.88;6224081;28;20064;-69
2022/04/13 04:18:05;;;;;;;4.55;1.90;;;;;;;7.79;100.00;101042.56;6223607;28;20049;-68
2022/04/13 04:21:06;;;;;;;2.53;1.95;;;;;;;7.77;100.00;101039.19;6223074;28;20425;-69
2022/04/13 04:24:09;;;;;;;4.88;1.83;;;;;;;7.73;100.00;101040.19;6223593;28;20053;-70
2022/04/13 04:27:11;;;;;;;1.73;1.10;;;;;;;7.70;100.00;101041.16;6223837;28;20053;-69
2022/04/13 04:30:12;;;;;;;4.53;1.77;;;;;;;7.66;100.00;101046.53;6223332;28;20046;-68
2022/04/13 04:33:14;;;;;;;10.77;1.60;;;;;;;7.63;100.00;101044.91;6223080;28;20054;-70
2022/04/13 04:36:15;;;;;;;3.63;1.63;;;;;;;7.58;100.00;101039.81;6223699;28;20495;-69
2022/04/13 04:39:18;;;;;;;3.17;1.70;;;;;;;7.59;100.00;101052.00;6223100;28;20050;-69
2022/04/13 04:42:19;;;;;;;2.08;1.40;;;;;;;7.56;100.00;101046.88;6222055;28;20060;-69
2022/04/13 04:45:21;;;;;;;2.88;1.38;;;;;;;7.58;100.00;101049.44;6223149;28;20164;-69
2022/04/13 04:48:22;;;;;;;5.25;1.65;;;;;;;7.58;100.00;101052.88;6223257;28;20054;-68
2022/04/13 04:51:24;;;;;;;2.33;1.40;;;;;;;7.57;100.00;101063.41;6222444;28;20061;-69
2022/04/13 04:54:27;;;;;;;1.85;1.45;;;;;;;7.57;100.00;101063.41;6223336;28;20409;-69
2022/04/13 04:57:28;;;;;;;2.45;1.65;;;;;;;7.57;100.00;101063.41;6222932;28;20049;-70
2022/04/13 05:00:35;;;;;;;1.67;1.30;;;;;;;7.56;100.00;101061.72;6222112;28;20449;-69
2022/04/13 05:03:36;;;;;;;7.00;2.42;;;;;;;7.58;100.00;101071.19;6223063;28;20046;-69
2022/04/13 05:06:37;;;;;;;2.83;1.70;;;;;;;7.56;100.00;101075.66;6222605;28;20053;-69
2022/04/13 05:09:40;;;;;;;3.08;1.77;;;;;;;7.58;100.00;101086.03;6222689;28;20056;-69
2022/04/13 05:12:43;;;;;;;4.25;1.70;;;;;;;7.55;100.00;101084.41;6222091;28;20050;-69
2022/04/13 05:15:45;;;;;;;3.95;1.85;;;;;;;7.58;100.00;101102.59;6222893;28;20084;-69
2022/04/13 05:18:47;;;;;;;3.92;2.20;;;;;;;7.60;100.00;101092.09;6222468;28;20559;-69
2022/04/13 05:21:48;;;;;;;3.47;1.73;;;;;;;7.59;100.00;101096.47;6222108;28;20057;-69
2022/04/13 05:24:51;;;;;;;3.08;1.52;;;;;;;7.61;100.00;101099.03;6222474;28;20057;-69
2022/04/13 05:27:52;;;;;;;2.50;1.70;;;;;;;7.63;100.00;101102.47;6222295;28;20421;-69
2022/04/13 05:30:54;;;;;;;3.40;1.55;;;;;;;7.65;100.00;101110.22;6221680;28;20505;-68
2022/04/13 05:33:55;;;;;;;4.70;1.70;;;;;;;7.68;100.00;101100.53;6222598;28;20061;-69
2022/04/13 05:36:57;;;;;;;4.20;2.10;;;;;;;7.70;100.00;101103.06;6222519;28;20513;-69
2022/04/13 05:40:00;;;;;;;7.32;2.80;;;;;;;7.75;100.00;101114.22;6221736;28;20061;-68
2022/04/13 05:43:01;;;;;;;8.40;2.22;;;;;;;7.77;100.00;101115.88;6222008;28;20414;-69
2022/04/13 05:46:03;;;;;;;6.65;2.25;;;;;;;7.82;100.00;101118.34;6222080;28;20049;-68
2022/04/13 05:49:04;;;;;;;5.45;1.77;;;;;;;7.88;100.00;101120.72;6222177;28;20056;-68
2022/04/13 05:52:06;;;;;;;5.72;3.00;;;;;;;7.94;100.00;101130.13;6223129;28;20056;-69
2022/04/13 05:55:10;;;;;;;6.03;2.45;;;;;;;8.02;100.00;101128.06;6230454;28;20049;-69
2022/04/13 05:58:11;;;;;;;5.68;2.10;;;;;;;8.09;100.00;101137.44;6229954;28;20406;-69
2022/04/13 06:01:12;;;;;;;5.43;1.77;;;;;;;8.11;100.00;101141.69;6229649;28;20181;-68
2022/04/13 06:04:14;;;;;;;6.78;2.17;;;;;;;8.16;100.00;101138.88;6230131;28;20053;-69
2022/04/13 06:07:15;;;;;;;3.65;1.83;;;;;;;8.23;100.00;101140.38;6230143;28;20061;-69
2022/04/13 06:10:19;;;;;;;3.80;1.52;;;;;;;8.33;100.00;101149.59;6229595;28;20498;-67
2022/04/13 06:13:21;;;;;;;3.53;1.70;;;;;;;8.43;100.00;101149.28;6229496;28;20073;-68
2022/04/13 06:16:22;;;;;;;4.70;1.98;;;;;;;8.53;100.00;101145.38;6229936;28;20490;-69
2022/04/13 06:19:23;;;;;;;4.82;1.70;;;;;;;8.64;100.00;101151.94;6229562;28;20506;-69
2022/04/13 06:22:25;;;;;;;3.83;1.77;;;;;;;8.75;100.00;101151.50;6229597;28;20050;-69
2022/04/13 06:25:27;;;;;;;7.65;2.28;;;;;;;8.88;100.00;101154.50;6229761;28;20054;-67
2022/04/13 06:28:30;;;;;;;3.75;1.42;;;;;;;9.01;100.00;101154.88;6229801;28;20046;-69
2022/04/13 06:31:31;;;;;;;7.40;1.73;;;;;;;9.19;100.00;101153.28;6225314;28;20077;-67
2022/04/13 06:34:33;;;;;;;4.03;2.10;;;;;;;9.41;100.00;101164.59;6229346;28;20054;-69
2022/04/13 06:37:35;;;;;;;3.42;1.85;;;;;;;9.60;100.00;101162.03;6229356;28;20046;-67
2022/04/13 06:40:38;;;;;;;6.25;2.30;;;;;;;9.74;100.00;101164.91;6228843;28;20762;-68
2022/04/13 06:43:40;;;;;;;3.33;1.55;;;;;;;9.89;98.57;101163.38;6229248;28;20049;-68
2022/04/13 06:46:41;;;;;;;3.33;1.95;;;;;;;9.96;94.16;101164.84;6229047;28;20050;-69
2022/04/13 06:49:43;;;;;;;3.60;1.83;;;;;;;10.06;92.84;101166.13;6210721;28;20050;-68
2022/04/13 06:52:44;;;;;;;4.85;1.88;;;;;;;10.15;92.04;101170.13;6204485;28;20425;-68
2022/04/13 06:55:48;;;;;;;3.22;1.80;;;;;;;10.26;92.42;101174.91;6204857;28;20177;-68
2022/04/13 06:58:49;;;;;;;2.45;1.80;;;;;;;10.39;92.34;101179.53;6208887;28;20050;-69
2022/04/13 07:01:50;;;;;;;3.40;2.00;;;;;;;10.55;92.42;101181.47;6227110;28;20046;-68
2022/04/13 07:04:52;;;;;;;4.05;1.98;;;;;;;10.74;91.61;101179.69;6224522;28;20050;-68
2022/04/13 07:07:53;;;;;;;7.50;2.40;;;;;;;10.99;89.82;101183.78;6225274;28;20071;-68
2022/04/13 07:10:56;;;;;;;6.25;1.65;;;;;;;11.20;88.90;101189.78;6224644;28;20077;-68
2022/04/13 07:13:57;;;;;;;9.40;1.95;;;;;;;11.36;84.56;101188.97;6225541;28;20054;-69
2022/04/13 07:16:58;;;;;;;6.95;2.25;;;;;;;11.58;81.71;101190.50;6225363;28;20486;-69
2022/04/13 07:19:59;;;;;;;4.72;1.83;;;;;;;11.77;79.44;101186.03;6224878;28;20053;-68
2022/04/13 07:23:01;;;;;;;2.30;1.38;;;;;;;11.93;77.35;101184.31;6224914;28;20057;-68
2022/04/13 07:26:03;;;;;;;2.85;1.60;;;;;;;12.15;77.56;101199.00;6224940;28;20054;-69
2022/04/13 07:29:05;;;;;;;2.78;1.60;;;;;;;12.32;76.50;101198.13;6224927;28;20053;-68
2022/04/13 07:32:07;;;;;;;3.50;1.77;;;;;;;12.46;75.61;101195.59;6223948;28;20057;-69
2022/04/13 07:35:09;;;;;;;1.58;1.30;;;;;;;12.64;71.71;101207.78;6224990;28;20072;-69
2022/04/13 07:38:10;;;;;;;1.20;0.90;;;;;;;12.79;73.25;101211.34;6219416;28;20057;-69
2022/04/13 07:41:13;;;;;;;2.08;1.10;;;;;;;12.93;70.79;101214.06;6224080;28;20062;-69
2022/04/13 07:44:15;;;;;;;2.45;1.45;;;;;;;13.08;70.49;101211.50;6223837;28;20398;-69
2022/04/13 07:47:16;;;;;;;5.93;1.52;;;;;;;13.20;73.30;101218.75;6224775;28;20060;-69
2022/04/13 07:50:17;;;;;;;3.58;1.67;;;;;;;13.27;72.20;101214.88;6223662;28;20054;-68
2022/04/13 07:53:19;;;;;;;4.85;1.77;;;;;;;13.36;70.84;101216.97;6224347;28;20069;-70
2022/04/13 07:56:21;;;;;;;3.15;1.77;;;;;;;13.52;70.35;101221.38;6224515;28;20050;-69
2022/04/13 07:59:23;;;;;;;2.13;1.45;;;;;;;13.64;72.27;101225.94;6224531;28;20053;-70
2022/04/13 08:02:24;;;;;;;3.38;1.73;;;;;;;13.67;71.75;101231.03;6223702;28;20050;-69
2022/04/13 08:05:26;;;;;;;4.03;1.80;;;;;;;13.75;72.65;101225.31;6224201;28;20049;-69
2022/04/13 08:08:27;;;;;;;3.45;1.40;;;;;;;13.77;75.07;101224.28;6224276;28;20045;-69
2022/04/13 08:11:30;;;;;;;4.32;1.60;;;;;;;13.83;74.79;101233.63;6222887;28;20057;-69
2022/04/13 08:14:31;;;;;;;2.40;1.25;;;;;;;13.79;75.29;101235.59;6224011;28;20045;-69
2022/04/13 08:17:33;;;;;;;3.45;1.45;;;;;;;13.77;75.74;101234.84;6217280;28;20052;-69
2022/04/13 08:20:34;;;;;;;6.88;1.20;;;;;;;13.78;75.60;101244.47;6223228;28;20054;-70
2022/04/13 08:23:35;;;;;;;2.70;1.80;;;;;;;13.86;74.67;101238.75;6223860;28;20065;-69
2022/04/13 08:26:38;;;;;;;2.22;1.75;;;;;;;14.02;71.50;101241.31;6223549;28;20418;-68
2022/04/13 08:29:41;;;;;;;1.55;1.20;;;;;;;14.24;71.02;101235.59;6223703;28;20049;-69
2022/04/13 08:32:42;;;;;;;2.17;1.60;;;;;;;14.32;69.89;101233.34;6223042;28;20050;-69
2022/04/13 08:35:43;;;;;;;2.95;1.50;;;;;;;14.36;68.45;101245.41;6223832;28;20046;-70
2022/04/13 08:38:45;;;;;;;6.57;1.63;;;;;;;14.46;71.67;101249.19;6223302;28;20053;-68
2022/04/13 08:41:51;;;;;;;5.97;1.70;;;;;;;14.63;68.23;101248.19;6222126;28;20057;-69
2022/04/13 08:44:53;;;;;;;4.78;1.55;;;;;;;14.72;68.07;101242.31;6223178;28;20057;-69
2022/04/13 08:47:57;;;;;;;9.30;1.83;;;;;;;14.74;67.20;101251.00;6223113;28;20053;-69
2022/04/13 08:51:00;;;;;;;4.35;1.90;;;;;;;14.89;67.16;101251.81;6222298;28;20425;-69
2022/04/13 08:54:12;;;;;;;3.50;1.58;;;;;;;15.15;66.11;101251.00;6223170;28;20623;-69
2022/04/13 08:57:16;;;;;;;3.80;1.73;;;;;;;15.30;63.88;101257.09;6220512;28;20042;-69
2022/04/13 09:00:19;;;;;;;2.10;1.60;;;;;;;15.38;64.04;101254.81;6221723;28;20050;-68
2022/04/13 09:03:27;;;;;;;2.20;1.60;;;;;;;15.47;62.90;101262.16;6222831;28;20072;-69
2022/04/13 09:06:31;;;;;;;5.05;1.63;;;;;;;15.45;64.06;101261.44;6198650;28;20073;-69
2022/04/13 09:09:40;;;;;;;2.03;1.23;;;;;;;15.51;63.52;101267.28;6203052;28;20046;-69
2022/04/13 09:12:44;;;;;;;5.82;1.55;;;;;;;15.48;63.26;101266.50;6212596;28;20057;-68
2022/04/13 09:15:46;;;;;;;2.15;1.30;;;;;;;15.47;64.89;101264.81;6219174;28;20050;-69
2022/04/13 09:18:47;;;;;;;3.22;1.58;;;;;;;15.50;64.95;101266.44;6222399;28;20489;-69
2022/04/13 09:21:51;;;;;;;2.63;1.60;;;;;;;15.55;64.20;101266.97;6221810;28;20398;-69
2022/04/13 09:24:53;;;;;;;6.82;1.70;;;;;;;15.81;63.46;101277.69;6222420;28;20649;-68
2022/04/13 09:27:57;;;;;;;2.90;1.63;;;;;;;16.05;63.71;101277.81;6222168;28;20053;-68
2022/04/13 09:30:59;;;;;;;3.33;1.80;;;;;;;16.17;64.81;101267.25;6221667;28;20050;-72
2022/04/13 09:34:00;;;;;;;5.63;1.73;;;;;;;16.39;63.43;101277.19;6222831;28;20061;-69
2022/04/13 09:37:02;;;;;;;6.60;3.55;;;;;;;16.54;64.18;101264.69;6220432;28;20046;-69
2022/04/13 09:40:03;;;;;;;3.22;1.80;;;;;;;16.69;62.46;101271.56;6219427;28;20076;-69
2022/04/13 09:43:10;;;;;;;8.40;1.75;;;;;;;16.86;62.75;101270.41;6207111;28;20446;-68
2022/04/13 09:46:26;;;;;;;4.25;1.92;;;;;;;16.86;60.36;101272.22;6219328;28;20049;-69
2022/04/13 09:49:28;;;;;;;3.22;1.70;;;;;;;17.05;60.33;101271.75;6206679;28;20050;-69
2022/04/13 09:52:33;;;;;;;4.93;1.40;;;;;;;17.12;60.50;101281.81;6221285;28;20053;-69
2022/04/13 09:55:37;;;;;;;2.63;1.58;;;;;;;17.15;62.60;101278.06;6221937;28;20065;-70
2022/04/13 09:58:40;;;;;;;4.22;1.80;;;;;;;17.11;63.88;101279.25;6222101;28;20068;-69
2022/04/13 10:01:42;;;;;;;1.88;1.50;;;;;;;17.17;60.98;101287.63;6221300;28;20057;-70
2022/04/13 10:04:43;;;;;;;6.90;1.92;;;;;;;17.19;61.07;101282.22;6222128;28;20050;-70
2022/04/13 10:07:44;;;;;;;2.72;1.45;;;;;;;17.26;61.76;101294.09;6221407;28;20057;-69
2022/04/13 10:10:47;;;;;;;2.05;1.73;;;;;;;17.30;61.87;101284.91;6221083;28;20046;-70
2022/04/13 10:13:49;;;;;;;2.53;1.50;;;;;;;17.43;62.70;101291.03;6222032;28;20512;-69
2022/04/13 10:16:52;;;;;;;2.20;1.55;;;;;;;17.42;61.54;101284.03;6221578;28;20057;-69
2022/04/13 10:19:55;;;;;;;2.80;1.77;;;;;;;17.41;63.27;101281.50;6221621;28;20046;-69
2022/04/13 10:22:57;;;;;;;2.38;1.42;;;;;;;17.53;62.21;101287.69;6221225;28;20188;-69
2022/04/13 10:26:09;;;;;;;4.70;1.50;;;;;;;17.71;61.25;101291.63;6221796;28;20177;-70
2022/04/13 10:29:18;;;;;;;5.40;2.33;;;;;;;17.71;60.50;101283.66;6221675;28;20460;-69
2022/04/13 10:32:24;;;;;;;2.47;1.70;;;;;;;17.95;63.47;101287.19;6221169;28;20050;-70
2022/04/13 10:35:26;;;;;;;3.40;1.90;;;;;;;17.97;62.92;101295.88;6221645;28;20053;-70
2022/04/13 10:38:27;;;;;;;3.33;1.65;;;;;;;17.96;64.19;101290.69;6221653;28;20497;-69
2022/04/13 10:41:29;;;;;;;4.15;2.08;;;;;;;18.04;60.95;101288.31;6225429;28;20053;-69
2022/04/13 10:44:36;;;;;;;5.45;2.15;;;;;;;18.23;61.14;101293.91;6226225;28;20046;-73
2022/04/13 10:47:44;;;;;;;2.15;1.52;;;;;;;18.29;59.70;101291.75;6225815;28;20076;-70
2022/04/13 10:50:55;;;;;;;3.83;1.83;;;;;;;18.50;56.70;101290.94;6225367;28;20049;-70
2022/04/13 10:54:00;;;;;;;3.35;1.95;;;;;;;18.51;57.35;101289.94;6226126;28;20100;-70
2022/04/13 10:57:05;;;;;;;2.67;1.75;;;;;;;18.60;59.28;101296.38;6225789;28;20424;-70
2022/04/13 11:00:10;;;;;;;8.30;2.22;;;;;;;18.75;59.85;101297.84;6225294;28;20055;-69
2022/04/13 11:03:12;;;;;;;4.43;2.03;;;;;;;18.83;58.19;101288.41;6225545;28;20135;-69
2022/04/13 11:06:14;;;;;;;3.58;1.65;;;;;;;18.96;57.68;101287.31;6225582;28;20046;-69
2022/04/13 11:09:21;;;;;;;4.30;1.92;;;;;;;19.14;59.89;101282.34;6225560;28;20471;-70
2022/04/13 11:12:24;;;;;;;2.40;1.75;;;;;;;19.30;57.05;101286.41;6223794;28;20050;-69
2022/04/13 11:15:39;;;;;;;7.40;1.90;;;;;;;19.47;58.49;101286.72;6225128;28;20049;-69
2022/04/13 11:18:40;;;;;;;2.55;1.90;;;;;;;19.56;57.63;101285.13;6219746;28;20065;-70
2022/04/13 11:22:10;;;;;;;2.58;1.80;;;;;;;19.62;57.52;101281.13;6224778;28;20056;-70
2022/04/13 11:25:32;;;;;;;8.93;2.00;;;;;;;19.74;55.94;101274.78;6225097;28;20050;-70
2022/04/13 11:28:34;;;;;;;5.13;2.33;;;;;;;20.17;59.64;101276.50;6224952;28;20057;-70
2022/04/13 11:32:14;;;;;;;5.53;1.92;;;;;;;20.55;55.33;101267.03;6224238;28;20046;-69
2022/04/13 11:35:25;;;;;;;4.13;1.90;;;;;;;20.83;53.66;101276.97;6224995;28;20185;-69
2022/04/13 11:38:33;;;;;;;4.25;1.90;;;;;;;21.02;52.52;101276.19;6224747;28;20238;-70
2022/04/13 11:41:34;;;;;;;2.58;1.40;;;;;;;21.21;52.23;101278.06;6223879;28;20049;-69
2022/04/13 11:44:47;;;;;;;6.25;1.30;;;;;;;21.56;50.64;101282.94;6224456;28;20496;-70
2022/04/13 11:47:58;;;;;;;4.25;1.70;;;;;;;21.82;51.23;101275.19;6223918;28;20037;-70
2022/04/13 11:51:26;;;;;;;3.30;1.42;;;;;;;22.09;49.15;101271.78;6223188;28;20459;-69
2022/04/13 11:54:45;;;;;;;6.20;1.75;;;;;;;22.48;48.97;101279.72;6217069;28;20489;-69
2022/04/13 11:58:02;;;;;;;6.63;2.13;;;;;;;22.53;47.64;101272.13;6224410;28;20046;-68
2022/04/13 12:01:11;;;;;;;3.30;1.70;;;;;;;22.45;48.34;101275.53;6223436;28;20045;-68
2022/04/13 12:04:14;;;;;;;3.65;1.70;;;;;;;22.86;49.40;101280.59;6224247;28;20081;-69
2022/04/13 12:07:16;;;;;;;5.90;2.00;;;;;;;22.81;47.69;101273.00;6224052;28;20049;-68
2022/04/13 12:10:18;;;;;;;1.80;1.20;;;;;;;23.39;47.32;101282.53;6223566;28;20062;-68
2022/04/13 12:13:19;;;;;;;3.78;1.75;;;;;;;23.36;48.12;101277.50;6223826;28;20049;-67
2022/04/13 12:16:23;;;;;;;4.30;1.42;;;;;;;23.06;45.28;101274.13;6223954;28;20505;-68
2022/04/13 12:19:26;;;;;;;2.72;1.25;;;;;;;23.47;45.85;101277.25;6223570;28;20076;-69
2022/04/13 12:22:27;;;;;;;0.70;0.60;;;;;;;23.76;45.27;101266.34;6223274;28;20054;-68
2022/04/13 12:25:29;;;;;;;2.05;1.30;;;;;;;23.97;44.60;101274.88;6223542;28;20050;-68
2022/04/13 12:28:31;;;;;;;2.42;1.30;;;;;;;24.03;42.73;101274.28;6223801;28;20053;-68
2022/04/13 12:31:32;;;;;;;3.47;1.30;;;;;;;24.06;43.39;101273.09;6223012;28;20084;-68
2022/04/13 12:34:36;;;;;;;4.40;1.38;;;;;;;24.25;43.21;101283.66;6223427;28;20493;-67
2022/04/13 12:37:37;;;;;;;2.33;1.13;;;;;;;24.36;42.54;101270.97;6216782;28;20057;-68
2022/04/13 12:40:39;;;;;;;1.63;1.20;;;;;;;24.01;41.95;101278.09;6215440;28;20061;-68
2022/04/13 12:43:42;;;;;;;5.22;2.10;;;;;;;23.82;43.04;101281.81;6223361;28;20064;-68
2022/04/13 12:46:43;;;;;;;3.17;1.08;;;;;;;23.97;43.79;101282.09;6223120;28;20077;-69
2022/04/13 12:49:59;;;;;;;1.33;1.13;;;;;;;23.83;44.36;101280.81;6220307;28;20042;-68
2022/04/13 12:53:02;;;;;;;3.28;1.70;;;;;;;23.80;44.01;101283.81;6222446;28;20049;-71
2022/04/13 12:56:04;;;;;;;3.10;1.83;;;;;;;24.06;42.61;101286.53;6219586;28;20054;-68
2022/04/13 12:59:06;;;;;;;6.85;1.85;;;;;;;23.69;44.30;101292.94;6222681;28;20049;-70
2022/04/13 13:02:08;;;;;;;4.07;1.90;;;;;;;23.92;45.36;101279.88;6221643;28;20508;-70
2022/04/13 13:05:11;;;;;;;4.75;2.08;;;;;;;24.46;44.81;101283.28;6222709;28;20054;-70
2022/04/13 13:08:13;;;;;;;4.15;2.13;;;;;;;24.63;42.30;101284.25;6222804;28;20133;-70
2022/04/13 13:11:14;;;;;;;7.13;2.00;;;;;;;25.08;41.86;101282.28;6217862;28;20061;-70
2022/04/13 13:14:16;;;;;;;3.97;2.20;;;;;;;24.61;40.51;101285.38;6209330;28;20046;-69
2022/04/13 13:17:19;;;;;;;3.90;1.85;;;;;;;24.74;40.87;101280.41;6221995;28;20111;-70
2022/04/13 13:20:21;;;;;;;8.00;2.30;;;;;;;24.60;41.53;101276.47;6221677;28;20042;-70
2022/04/13 13:23:24;;;;;;;6.60;1.90;;;;;;;24.77;41.09;101275.56;6222615;28;20046;-68
2022/04/13 13:26:26;;;;;;;4.63;1.60;;;;;;;24.76;41.35;101270.34;6222490;28;20050;-70
2022/04/13 13:29:27;;;;;;;8.32;2.15;;;;;;;24.43;41.84;101272.03;6222363;28;20046;-70
2022/04/13 13:32:29;;;;;;;2.92;1.63;;;;;;;23.95;42.97;101276.03;6221749;28;20050;-71
2022/04/13 13:35:32;;;;;;;3.47;1.63;;;;;;;24.03;44.91;101285.00;6222528;28;20572;-70
2022/04/13 13:38:34;;;;;;;3.58;1.70;;;;;;;23.63;43.28;101281.94;6220148;28;20137;-70
2022/04/13 13:41:35;;;;;;;4.85;1.70;;;;;;;23.53;43.90;101279.34;6221457;28;20053;-70
2022/04/13 13:44:36;;;;;;;5.28;1.52;;;;;;;23.66;43.33;101285.19;6222028;28;20421;-70
2022/04/13 13:47:38;;;;;;;3.65;1.50;;;;;;;23.91;45.46;101283.56;6222043;28;20054;-69
2022/04/13 13:50:42;;;;;;;4.43;1.42;;;;;;;24.21;44.38;101278.72;6221357;28;20053;-70
2022/04/13 13:53:44;;;;;;;7.15;1.50;;;;;;;24.15;45.54;101284.75;6222006;28;20521;-70
2022/04/13 13:56:46;;;;;;;2.33;1.65;;;;;;;24.19;44.75;101288.81;6221429;28;20060;-70
2022/04/13 13:59:48;;;;;;;7.03;2.40;;;;;;;23.69;44.12;101287.56;6220832;28;20050;-70
2022/04/13 14:02:53;;;;;;;2.65;1.83;;;;;;;23.38;44.50;101286.22;6220897;28;20394;-70
2022/04/13 14:05:56;;;;;;;4.10;1.83;;;;;;;23.45;46.66;101290.84;6221655;28;20046;-70
2022/04/13 14:08:57;;;;;;;1.90;1.30;;;;;;;24.24;46.85;101291.84;6220703;28;20250;-70
2022/04/13 14:11:59;;;;;;;2.42;1.58;;;;;;;24.02;43.82;101295.88;6220399;28;20057;-70
2022/04/13 14:15:00;;;;;;;4.35;1.70;;;;;;;23.98;43.58;101283.78;6225410;28;20050;-70